sensor_id;sensor_type;location;lat;lon;timestamp;P1;durP1;ratioP1;P2;durP2;ratioP2
9940;SDS011;5009;50.656;7.188;2023-02-21T05:02:35;35.03;;;27.23;;
9940;SDS011;5009;50.656;7.188;2023-02-21T05:05:01;34.53;;;26.03;;
9940;SDS011;5009;50.656;7.188;2023-02-21T05:07:27;33.10;;;25.77;;
9940;SDS011;5009;50.656;7.188;2023-02-21T05:09:52;31.47;;;24.33;;
9940;SDS011;5009;50.656;7.188;2023-02-21T05:12:18;30.67;;;24.17;;
9940;SDS011;5009;50.656;7.188;2023-02-21T05:14:43;27.13;;;23.17;;
9940;SDS011;5009;50.656;7.188;2023-02-21T05:17:09;29.77;;;23.47;;
9940;SDS011;5009;50.656;7.188;2023-02-21T05:19:35;34.80;;;24.23;;
9940;SDS011;5009;50.656;7.188;2023-02-21T05:22:01;28.00;;;22.03;;
9940;SDS011;5009;50.656;7.188;2023-02-21T05:24:28;30.03;;;23.07;;
9940;SDS011;5009;50.656;7.188;2023-02-21T05:26:54;25.13;;;19.77;;
9940;SDS011;5009;50.656;7.188;2023-02-21T05:29:20;32.67;;;22.27;;
9940;SDS011;5009;50.656;7.188;2023-02-21T05:31:46;31.13;;;21.83;;
9940;SDS011;5009;50.656;7.188;2023-02-21T05:34:13;25.73;;;21.47;;
9940;SDS011;5009;50.656;7.188;2023-02-21T05:36:39;27.00;;;21.47;;
9940;SDS011;5009;50.656;7.188;2023-02-21T05:39:06;29.40;;;21.07;;
9940;SDS011;5009;50.656;7.188;2023-02-21T05:41:32;28.93;;;21.73;;
9940;SDS011;5009;50.656;7.188;2023-02-21T05:43:59;28.67;;;20.33;;
9940;SDS011;5009;50.656;7.188;2023-02-21T05:46:30;26.90;;;21.13;;
9940;SDS011;5009;50.656;7.188;2023-02-21T05:48:58;27.40;;;20.47;;
9940;SDS011;5009;50.656;7.188;2023-02-21T05:51:24;24.47;;;19.33;;
9940;SDS011;5009;50.656;7.188;2023-02-21T05:53:51;29.80;;;20.03;;
9940;SDS011;5009;50.656;7.188;2023-02-21T05:56:17;26.47;;;20.53;;
9940;SDS011;5009;50.656;7.188;2023-02-21T05:58:44;28.27;;;19.97;;
9940;SDS011;5009;50.656;7.188;2023-02-21T06:01:09;30.67;;;20.53;;
9940;SDS011;5009;50.656;7.188;2023-02-21T06:03:35;23.87;;;20.30;;
9940;SDS011;5009;50.656;7.188;2023-02-21T06:06:01;28.70;;;20.43;;
9940;SDS011;5009;50.656;7.188;2023-02-21T06:08:26;30.13;;;21.73;;
9940;SDS011;5009;50.656;7.188;2023-02-21T06:10:52;29.87;;;22.13;;
9940;SDS011;5009;50.656;7.188;2023-02-21T06:13:18;31.10;;;22.40;;
9940;SDS011;5009;50.656;7.188;2023-02-21T06:15:43;26.70;;;22.33;;
9940;SDS011;5009;50.656;7.188;2023-02-21T06:18:11;29.77;;;21.83;;
9940;SDS011;5009;50.656;7.188;2023-02-21T06:20:38;27.40;;;22.87;;
9940;SDS011;5009;50.656;7.188;2023-02-21T06:23:04;29.83;;;21.93;;
9940;SDS011;5009;50.656;7.188;2023-02-21T06:25:29;32.80;;;22.40;;
9940;SDS011;5009;50.656;7.188;2023-02-21T06:27:55;31.80;;;23.07;;
9940;SDS011;5009;50.656;7.188;2023-02-21T06:30:21;29.77;;;22.47;;
9940;SDS011;5009;50.656;7.188;2023-02-21T06:32:46;30.40;;;23.07;;
9940;SDS011;5009;50.656;7.188;2023-02-21T06:35:12;31.10;;;22.90;;
9940;SDS011;5009;50.656;7.188;2023-02-21T06:37:37;30.20;;;22.53;;
9940;SDS011;5009;50.656;7.188;2023-02-21T06:40:03;32.30;;;22.63;;
9940;SDS011;5009;50.656;7.188;2023-02-21T06:42:29;28.50;;;22.13;;
9940;SDS011;5009;50.656;7.188;2023-02-21T06:44:55;29.77;;;21.23;;
9940;SDS011;5009;50.656;7.188;2023-02-21T06:47:20;28.10;;;23.23;;
9940;SDS011;5009;50.656;7.188;2023-02-21T06:49:46;27.93;;;22.13;;
9940;SDS011;5009;50.656;7.188;2023-02-21T06:52:11;30.00;;;22.50;;
9940;SDS011;5009;50.656;7.188;2023-02-21T06:54:37;28.33;;;22.20;;
9940;SDS011;5009;50.656;7.188;2023-02-21T06:57:03;29.80;;;21.97;;
9940;SDS011;5009;50.656;7.188;2023-02-21T06:59:29;31.17;;;23.20;;
9940;SDS011;5009;50.656;7.188;2023-02-21T07:01:55;25.03;;;20.67;;
9940;SDS011;5009;50.656;7.188;2023-02-21T07:04:21;31.37;;;22.53;;
9940;SDS011;5009;50.656;7.188;2023-02-21T07:06:46;28.90;;;22.17;;
9940;SDS011;5009;50.656;7.188;2023-02-21T07:09:12;27.80;;;22.03;;
9940;SDS011;5009;50.656;7.188;2023-02-21T07:11:38;30.30;;;22.30;;
9940;SDS011;5009;50.656;7.188;2023-02-21T07:14:05;26.80;;;20.73;;
9940;SDS011;5009;50.656;7.188;2023-02-21T07:16:31;29.50;;;21.57;;
9940;SDS011;5009;50.656;7.188;2023-02-21T07:18:56;24.53;;;19.93;;
9940;SDS011;5009;50.656;7.188;2023-02-21T07:21:22;24.47;;;21.20;;
9940;SDS011;5009;50.656;7.188;2023-02-21T07:23:50;27.27;;;22.13;;
9940;SDS011;5009;50.656;7.188;2023-02-21T07:26:15;27.83;;;20.67;;
9940;SDS011;5009;50.656;7.188;2023-02-21T07:28:41;29.17;;;20.70;;
9940;SDS011;5009;50.656;7.188;2023-02-21T07:31:07;25.80;;;20.73;;
9940;SDS011;5009;50.656;7.188;2023-02-21T07:33:34;28.20;;;21.20;;
9940;SDS011;5009;50.656;7.188;2023-02-21T07:36:00;27.60;;;21.47;;
9940;SDS011;5009;50.656;7.188;2023-02-21T07:38:26;28.87;;;21.47;;
9940;SDS011;5009;50.656;7.188;2023-02-21T07:40:54;29.57;;;21.47;;
9940;SDS011;5009;50.656;7.188;2023-02-21T07:43:20;27.07;;;20.90;;
9940;SDS011;5009;50.656;7.188;2023-02-21T07:45:46;27.60;;;21.73;;
9940;SDS011;5009;50.656;7.188;2023-02-21T07:48:12;27.20;;;21.10;;
9940;SDS011;5009;50.656;7.188;2023-02-21T07:50:39;29.63;;;22.70;;
9940;SDS011;5009;50.656;7.188;2023-02-21T07:53:05;26.90;;;20.90;;
9940;SDS011;5009;50.656;7.188;2023-02-21T07:55:31;25.40;;;21.27;;
9940;SDS011;5009;50.656;7.188;2023-02-21T07:57:57;28.50;;;21.47;;
9940;SDS011;5009;50.656;7.188;2023-02-21T08:00:23;25.40;;;20.40;;
9940;SDS011;5009;50.656;7.188;2023-02-21T08:02:50;28.60;;;21.03;;
9940;SDS011;5009;50.656;7.188;2023-02-21T08:05:16;27.10;;;21.67;;
9940;SDS011;5009;50.656;7.188;2023-02-21T08:07:43;24.47;;;20.47;;
9940;SDS011;5009;50.656;7.188;2023-02-21T08:10:09;28.87;;;22.00;;
9940;SDS011;5009;50.656;7.188;2023-02-21T08:12:35;27.40;;;21.20;;
9940;SDS011;5009;50.656;7.188;2023-02-21T08:15:01;29.57;;;21.50;;
9940;SDS011;5009;50.656;7.188;2023-02-21T08:17:26;28.57;;;21.83;;
9940;SDS011;5009;50.656;7.188;2023-02-21T08:19:52;28.17;;;21.47;;
9940;SDS011;5009;50.656;7.188;2023-02-21T08:22:18;27.27;;;21.50;;
9940;SDS011;5009;50.656;7.188;2023-02-21T08:24:44;23.70;;;18.70;;
9940;SDS011;5009;50.656;7.188;2023-02-21T08:27:10;24.47;;;18.73;;
9940;SDS011;5009;50.656;7.188;2023-02-21T08:29:35;24.60;;;20.23;;
9940;SDS011;5009;50.656;7.188;2023-02-21T08:32:01;27.13;;;20.30;;
9940;SDS011;5009;50.656;7.188;2023-02-21T08:34:27;26.63;;;20.23;;
9940;SDS011;5009;50.656;7.188;2023-02-21T08:36:55;26.30;;;19.87;;
9940;SDS011;5009;50.656;7.188;2023-02-21T08:39:21;26.83;;;18.97;;
9940;SDS011;5009;50.656;7.188;2023-02-21T08:41:47;23.07;;;18.80;;
9940;SDS011;5009;50.656;7.188;2023-02-21T08:44:14;22.67;;;18.20;;
9940;SDS011;5009;50.656;7.188;2023-02-21T08:46:41;22.77;;;18.33;;
9940;SDS011;5009;50.656;7.188;2023-02-21T08:49:07;22.83;;;17.97;;
9940;SDS011;5009;50.656;7.188;2023-02-21T08:51:33;24.07;;;19.10;;
9940;SDS011;5009;50.656;7.188;2023-02-21T08:54:00;23.03;;;17.43;;
9940;SDS011;5009;50.656;7.188;2023-02-21T08:56:26;22.33;;;17.13;;
9940;SDS011;5009;50.656;7.188;2023-02-21T08:58:52;20.07;;;16.37;;
9940;SDS011;5009;50.656;7.188;2023-02-21T09:01:19;22.23;;;18.20;;
9940;SDS011;5009;50.656;7.188;2023-02-21T09:03:45;20.33;;;16.40;;
9940;SDS011;5009;50.656;7.188;2023-02-21T09:06:11;20.27;;;16.70;;
9940;SDS011;5009;50.656;7.188;2023-02-21T09:08:37;20.63;;;16.77;;
9940;SDS011;5009;50.656;7.188;2023-02-21T09:11:04;24.43;;;16.20;;
9940;SDS011;5009;50.656;7.188;2023-02-21T09:13:31;23.03;;;16.87;;
9940;SDS011;5009;50.656;7.188;2023-02-21T09:15:57;19.60;;;16.53;;
9940;SDS011;5009;50.656;7.188;2023-02-21T09:18:23;19.43;;;16.77;;
9940;SDS011;5009;50.656;7.188;2023-02-21T09:20:49;23.83;;;17.10;;
9940;SDS011;5009;50.656;7.188;2023-02-21T09:23:15;20.70;;;16.83;;
9940;SDS011;5009;50.656;7.188;2023-02-21T09:25:44;19.73;;;16.40;;
9940;SDS011;5009;50.656;7.188;2023-02-21T09:28:09;20.10;;;16.63;;
9940;SDS011;5009;50.656;7.188;2023-02-21T09:30:35;21.23;;;16.20;;
9940;SDS011;5009;50.656;7.188;2023-02-21T09:33:01;17.83;;;15.53;;
9940;SDS011;5009;50.656;7.188;2023-02-21T09:35:26;21.83;;;16.10;;
9940;SDS011;5009;50.656;7.188;2023-02-21T09:37:55;20.10;;;15.60;;
9940;SDS011;5009;50.656;7.188;2023-02-21T09:40:44;18.20;;;16.20;;
9940;SDS011;5009;50.656;7.188;2023-02-21T09:43:16;21.43;;;16.97;;
9940;SDS011;5009;50.656;7.188;2023-02-21T09:45:45;18.33;;;15.67;;
9940;SDS011;5009;50.656;7.188;2023-02-21T09:48:13;19.87;;;16.20;;
9940;SDS011;5009;50.656;7.188;2023-02-21T09:50:46;19.53;;;15.63;;
9940;SDS011;5009;50.656;7.188;2023-02-21T09:53:15;17.50;;;15.67;;
9940;SDS011;5009;50.656;7.188;2023-02-21T09:55:50;20.07;;;15.83;;
9940;SDS011;5009;50.656;7.188;2023-02-21T09:58:21;16.93;;;14.97;;
9940;SDS011;5009;50.656;7.188;2023-02-21T10:00:48;18.13;;;15.70;;
9940;SDS011;5009;50.656;7.188;2023-02-21T10:08:49;19.23;;;15.80;;
9940;SDS011;5009;50.656;7.188;2023-02-21T10:17:02;20.83;;;15.90;;
9940;SDS011;5009;50.656;7.188;2023-02-21T10:19:50;17.00;;;14.60;;
9940;SDS011;5009;50.656;7.188;2023-02-21T10:24:44;17.93;;;14.90;;
9940;SDS011;5009;50.656;7.188;2023-02-21T10:27:21;17.47;;;13.27;;
9940;SDS011;5009;50.656;7.188;2023-02-21T10:30:04;15.90;;;13.27;;
9940;SDS011;5009;50.656;7.188;2023-02-21T10:32:35;16.53;;;13.00;;
9940;SDS011;5009;50.656;7.188;2023-02-21T10:35:02;15.37;;;13.57;;
9940;SDS011;5009;50.656;7.188;2023-02-21T10:40:00;16.47;;;12.90;;
9940;SDS011;5009;50.656;7.188;2023-02-21T10:42:44;16.43;;;13.00;;
9940;SDS011;5009;50.656;7.188;2023-02-21T10:45:15;13.17;;;11.60;;
9940;SDS011;5009;50.656;7.188;2023-02-21T10:53:30;15.20;;;13.57;;
9940;SDS011;5009;50.656;7.188;2023-02-21T10:58:52;12.87;;;11.57;;
9940;SDS011;5009;50.656;7.188;2023-02-21T11:07:00;14.40;;;11.50;;
9940;SDS011;5009;50.656;7.188;2023-02-21T11:09:38;13.33;;;11.93;;
9940;SDS011;5009;50.656;7.188;2023-02-21T11:17:17;18.30;;;13.83;;
9940;SDS011;5009;50.656;7.188;2023-02-21T11:19:51;18.13;;;13.70;;
9940;SDS011;5009;50.656;7.188;2023-02-21T11:22:38;14.97;;;12.83;;
9940;SDS011;5009;50.656;7.188;2023-02-21T11:25:23;14.10;;;12.53;;
9940;SDS011;5009;50.656;7.188;2023-02-21T11:28:05;16.80;;;13.27;;
9940;SDS011;5009;50.656;7.188;2023-02-21T11:33:30;16.00;;;12.70;;
9940;SDS011;5009;50.656;7.188;2023-02-21T11:36:14;14.50;;;12.30;;
9940;SDS011;5009;50.656;7.188;2023-02-21T11:38:44;15.27;;;12.43;;
9940;SDS011;5009;50.656;7.188;2023-02-21T11:41:29;15.37;;;11.90;;
9940;SDS011;5009;50.656;7.188;2023-02-21T11:43:58;12.97;;;10.73;;
9940;SDS011;5009;50.656;7.188;2023-02-21T11:46:31;12.40;;;10.50;;
9940;SDS011;5009;50.656;7.188;2023-02-21T11:54:10;13.67;;;9.90;;
9940;SDS011;5009;50.656;7.188;2023-02-21T11:59:27;12.60;;;9.83;;
9940;SDS011;5009;50.656;7.188;2023-02-21T12:02:13;12.47;;;10.10;;
9940;SDS011;5009;50.656;7.188;2023-02-21T12:04:58;11.83;;;9.50;;
9940;SDS011;5009;50.656;7.188;2023-02-21T12:10:21;11.37;;;10.17;;
9940;SDS011;5009;50.656;7.188;2023-02-21T12:13:08;10.43;;;9.10;;
9940;SDS011;5009;50.656;7.188;2023-02-21T12:15:46;9.63;;;8.70;;
9940;SDS011;5009;50.656;7.188;2023-02-21T12:21:14;10.63;;;8.93;;
9940;SDS011;5009;50.656;7.188;2023-02-21T12:34:40;11.30;;;9.73;;
9940;SDS011;5009;50.656;7.188;2023-02-21T12:38:06;10.00;;;8.90;;
9940;SDS011;5009;50.656;7.188;2023-02-21T12:40:26;10.20;;;8.87;;
9940;SDS011;5009;50.656;7.188;2023-02-21T12:45:48;11.57;;;8.33;;
9940;SDS011;5009;50.656;7.188;2023-02-21T12:48:30;9.47;;;8.50;;
9940;SDS011;5009;50.656;7.188;2023-02-21T12:51:05;9.93;;;8.70;;
9940;SDS011;5009;50.656;7.188;2023-02-21T12:59:05;10.00;;;8.93;;
9940;SDS011;5009;50.656;7.188;2023-02-21T13:01:37;9.63;;;8.20;;
9940;SDS011;5009;50.656;7.188;2023-02-21T13:07:23;11.20;;;8.73;;
9940;SDS011;5009;50.656;7.188;2023-02-21T13:10:02;8.20;;;7.40;;
9940;SDS011;5009;50.656;7.188;2023-02-21T13:12:55;8.60;;;7.63;;
9940;SDS011;5009;50.656;7.188;2023-02-21T13:15:35;9.30;;;7.37;;
9940;SDS011;5009;50.656;7.188;2023-02-21T13:18:14;8.50;;;6.90;;
9940;SDS011;5009;50.656;7.188;2023-02-21T13:20:45;10.07;;;6.87;;
9940;SDS011;5009;50.656;7.188;2023-02-21T13:29:29;7.93;;;6.73;;
9940;SDS011;5009;50.656;7.188;2023-02-21T13:34:30;5.90;;;5.30;;
9940;SDS011;5009;50.656;7.188;2023-02-21T13:37:02;4.97;;;4.57;;
9940;SDS011;5009;50.656;7.188;2023-02-21T13:39:31;4.77;;;3.93;;
9940;SDS011;5009;50.656;7.188;2023-02-21T13:42:05;4.93;;;4.43;;
9940;SDS011;5009;50.656;7.188;2023-02-21T13:44:35;4.63;;;4.10;;
9940;SDS011;5009;50.656;7.188;2023-02-21T13:47:14;4.50;;;4.10;;
9940;SDS011;5009;50.656;7.188;2023-02-21T13:58:31;5.07;;;3.80;;
9940;SDS011;5009;50.656;7.188;2023-02-21T14:11:22;5.00;;;3.57;;
9940;SDS011;5009;50.656;7.188;2023-02-21T14:14:02;3.80;;;3.40;;
9940;SDS011;5009;50.656;7.188;2023-02-21T14:16:32;3.33;;;3.13;;
9940;SDS011;5009;50.656;7.188;2023-02-21T14:19:04;3.40;;;3.10;;
9940;SDS011;5009;50.656;7.188;2023-02-21T14:29:36;4.37;;;3.67;;
9940;SDS011;5009;50.656;7.188;2023-02-21T14:34:38;3.40;;;3.10;;
9940;SDS011;5009;50.656;7.188;2023-02-21T14:37:26;4.93;;;3.50;;
9940;SDS011;5009;50.656;7.188;2023-02-21T14:39:59;5.23;;;3.20;;
9940;SDS011;5009;50.656;7.188;2023-02-21T14:48:31;3.80;;;3.43;;
9940;SDS011;5009;50.656;7.188;2023-02-21T14:54:21;5.20;;;3.87;;
9940;SDS011;5009;50.656;7.188;2023-02-21T15:05:25;4.67;;;3.20;;
9940;SDS011;5009;50.656;7.188;2023-02-21T15:07:59;3.00;;;2.80;;
9940;SDS011;5009;50.656;7.188;2023-02-21T15:10:32;7.03;;;3.27;;
9940;SDS011;5009;50.656;7.188;2023-02-21T15:13:05;8.37;;;6.57;;
9940;SDS011;5009;50.656;7.188;2023-02-21T15:15:34;11.40;;;9.73;;
9940;SDS011;5009;50.656;7.188;2023-02-21T15:18:10;12.10;;;9.73;;
9940;SDS011;5009;50.656;7.188;2023-02-21T15:21:07;14.40;;;11.17;;
9940;SDS011;5009;50.656;7.188;2023-02-21T15:23:45;18.50;;;13.20;;
9940;SDS011;5009;50.656;7.188;2023-02-21T15:31:50;21.63;;;17.20;;
9940;SDS011;5009;50.656;7.188;2023-02-21T15:34:25;22.70;;;17.73;;
9940;SDS011;5009;50.656;7.188;2023-02-21T15:37:16;21.53;;;16.90;;
9940;SDS011;5009;50.656;7.188;2023-02-21T15:39:55;25.20;;;18.60;;
9940;SDS011;5009;50.656;7.188;2023-02-21T15:42:24;25.87;;;18.53;;
9940;SDS011;5009;50.656;7.188;2023-02-21T15:44:56;23.57;;;18.70;;
9940;SDS011;5009;50.656;7.188;2023-02-21T15:47:25;25.33;;;19.57;;
9940;SDS011;5009;50.656;7.188;2023-02-21T15:52:40;26.10;;;19.20;;
9940;SDS011;5009;50.656;7.188;2023-02-21T15:55:12;22.50;;;18.33;;
9940;SDS011;5009;50.656;7.188;2023-02-21T15:57:38;26.27;;;19.00;;
9940;SDS011;5009;50.656;7.188;2023-02-21T16:02:41;23.83;;;18.67;;
9940;SDS011;5009;50.656;7.188;2023-02-21T16:05:21;24.47;;;19.93;;
9940;SDS011;5009;50.656;7.188;2023-02-21T16:07:50;25.50;;;19.53;;
9940;SDS011;5009;50.656;7.188;2023-02-21T16:10:18;27.33;;;20.60;;
9940;SDS011;5009;50.656;7.188;2023-02-21T16:12:52;23.30;;;18.40;;
9940;SDS011;5009;50.656;7.188;2023-02-21T16:15:24;25.40;;;18.47;;
9940;SDS011;5009;50.656;7.188;2023-02-21T16:17:54;32.47;;;19.13;;
9940;SDS011;5009;50.656;7.188;2023-02-21T16:23:13;24.63;;;19.13;;
9940;SDS011;5009;50.656;7.188;2023-02-21T16:28:18;29.37;;;19.70;;
9940;SDS011;5009;50.656;7.188;2023-02-21T16:30:44;29.27;;;20.00;;
9940;SDS011;5009;50.656;7.188;2023-02-21T16:33:10;28.67;;;19.93;;
9940;SDS011;5009;50.656;7.188;2023-02-21T16:35:38;32.10;;;19.83;;
9940;SDS011;5009;50.656;7.188;2023-02-21T16:38:03;26.40;;;19.73;;
9940;SDS011;5009;50.656;7.188;2023-02-21T16:40:32;25.00;;;19.07;;
9940;SDS011;5009;50.656;7.188;2023-02-21T16:42:59;31.97;;;20.60;;
9940;SDS011;5009;50.656;7.188;2023-02-21T16:45:26;25.07;;;19.60;;
9940;SDS011;5009;50.656;7.188;2023-02-21T16:47:57;23.70;;;19.33;;
9940;SDS011;5009;50.656;7.188;2023-02-21T16:50:33;27.87;;;20.77;;
9940;SDS011;5009;50.656;7.188;2023-02-21T16:53:03;24.90;;;18.73;;
9940;SDS011;5009;50.656;7.188;2023-02-21T16:55:29;29.17;;;19.97;;
9940;SDS011;5009;50.656;7.188;2023-02-21T16:57:57;27.47;;;21.37;;
9940;SDS011;5009;50.656;7.188;2023-02-21T17:00:25;26.87;;;21.17;;
9940;SDS011;5009;50.656;7.188;2023-02-21T17:02:50;26.33;;;21.33;;
9940;SDS011;5009;50.656;7.188;2023-02-21T17:05:17;27.37;;;22.37;;
9940;SDS011;5009;50.656;7.188;2023-02-21T17:07:45;32.33;;;25.50;;
9940;SDS011;5009;50.656;7.188;2023-02-21T17:10:11;39.03;;;26.63;;
9940;SDS011;5009;50.656;7.188;2023-02-21T17:12:37;34.70;;;26.77;;
9940;SDS011;5009;50.656;7.188;2023-02-21T17:15:03;34.30;;;26.70;;
9940;SDS011;5009;50.656;7.188;2023-02-21T17:17:29;49.20;;;29.53;;
9940;SDS011;5009;50.656;7.188;2023-02-21T17:19:54;42.37;;;29.27;;
9940;SDS011;5009;50.656;7.188;2023-02-21T17:22:20;41.27;;;30.67;;
9940;SDS011;5009;50.656;7.188;2023-02-21T17:24:46;44.17;;;31.77;;
9940;SDS011;5009;50.656;7.188;2023-02-21T17:27:11;45.47;;;33.07;;
9940;SDS011;5009;50.656;7.188;2023-02-21T17:29:37;50.13;;;34.17;;
9940;SDS011;5009;50.656;7.188;2023-02-21T17:32:03;55.90;;;36.90;;
9940;SDS011;5009;50.656;7.188;2023-02-21T17:34:32;50.60;;;35.77;;
9940;SDS011;5009;50.656;7.188;2023-02-21T17:36:58;52.07;;;35.53;;
9940;SDS011;5009;50.656;7.188;2023-02-21T17:39:23;52.73;;;38.37;;
9940;SDS011;5009;50.656;7.188;2023-02-21T17:41:50;50.00;;;35.97;;
9940;SDS011;5009;50.656;7.188;2023-02-21T17:44:16;48.93;;;34.93;;
9940;SDS011;5009;50.656;7.188;2023-02-21T17:46:45;51.97;;;36.73;;
9940;SDS011;5009;50.656;7.188;2023-02-21T17:49:15;53.93;;;39.07;;
9940;SDS011;5009;50.656;7.188;2023-02-21T17:51:42;58.80;;;40.40;;
9940;SDS011;5009;50.656;7.188;2023-02-21T17:54:09;63.73;;;42.17;;
9940;SDS011;5009;50.656;7.188;2023-02-21T17:56:34;60.63;;;41.60;;
9940;SDS011;5009;50.656;7.188;2023-02-21T17:59:00;63.50;;;42.20;;
9940;SDS011;5009;50.656;7.188;2023-02-21T18:01:25;60.80;;;43.13;;
9940;SDS011;5009;50.656;7.188;2023-02-21T18:03:53;65.40;;;43.00;;
9940;SDS011;5009;50.656;7.188;2023-02-21T18:06:19;65.53;;;44.37;;
9940;SDS011;5009;50.656;7.188;2023-02-21T18:08:45;65.67;;;43.80;;
9940;SDS011;5009;50.656;7.188;2023-02-21T18:11:11;67.97;;;47.40;;
9940;SDS011;5009;50.656;7.188;2023-02-21T18:13:38;70.37;;;46.53;;
9940;SDS011;5009;50.656;7.188;2023-02-21T18:16:04;70.73;;;46.60;;
9940;SDS011;5009;50.656;7.188;2023-02-21T18:18:31;75.03;;;46.10;;
9940;SDS011;5009;50.656;7.188;2023-02-21T18:20:57;67.83;;;46.10;;
9940;SDS011;5009;50.656;7.188;2023-02-21T18:23:24;74.33;;;47.37;;
9940;SDS011;5009;50.656;7.188;2023-02-21T18:25:50;74.33;;;45.30;;
9940;SDS011;5009;50.656;7.188;2023-02-21T18:28:16;68.47;;;45.23;;
9940;SDS011;5009;50.656;7.188;2023-02-21T18:30:41;70.97;;;44.20;;
9940;SDS011;5009;50.656;7.188;2023-02-21T18:33:07;76.00;;;48.40;;
9940;SDS011;5009;50.656;7.188;2023-02-21T18:35:32;81.00;;;47.77;;
9940;SDS011;5009;50.656;7.188;2023-02-21T18:37:58;71.47;;;47.53;;
9940;SDS011;5009;50.656;7.188;2023-02-21T18:40:23;76.87;;;49.00;;
9940;SDS011;5009;50.656;7.188;2023-02-21T18:43:01;77.00;;;48.93;;
9940;SDS011;5009;50.656;7.188;2023-02-21T18:45:32;77.67;;;49.60;;
9940;SDS011;5009;50.656;7.188;2023-02-21T18:48:01;81.70;;;57.53;;
9940;SDS011;5009;50.656;7.188;2023-02-21T18:50:27;78.80;;;52.73;;
9940;SDS011;5009;50.656;7.188;2023-02-21T18:52:52;72.50;;;47.33;;
9940;SDS011;5009;50.656;7.188;2023-02-21T18:55:18;68.23;;;45.80;;
9940;SDS011;5009;50.656;7.188;2023-02-21T18:57:44;66.37;;;42.83;;
9940;SDS011;5009;50.656;7.188;2023-02-21T19:00:14;61.90;;;42.47;;
9940;SDS011;5009;50.656;7.188;2023-02-21T19:02:41;59.77;;;40.80;;
9940;SDS011;5009;50.656;7.188;2023-02-21T19:05:08;61.53;;;40.80;;
9940;SDS011;5009;50.656;7.188;2023-02-21T19:07:40;68.27;;;41.23;;
9940;SDS011;5009;50.656;7.188;2023-02-21T19:10:06;63.57;;;40.77;;
9940;SDS011;5009;50.656;7.188;2023-02-21T19:12:34;61.93;;;41.27;;
9940;SDS011;5009;50.656;7.188;2023-02-21T19:14:59;66.20;;;41.77;;
9940;SDS011;5009;50.656;7.188;2023-02-21T19:17:25;67.40;;;42.93;;
9940;SDS011;5009;50.656;7.188;2023-02-21T19:19:50;71.77;;;42.77;;
9940;SDS011;5009;50.656;7.188;2023-02-21T19:22:16;66.77;;;41.60;;
9940;SDS011;5009;50.656;7.188;2023-02-21T19:24:41;64.00;;;41.33;;
9940;SDS011;5009;50.656;7.188;2023-02-21T19:27:07;62.23;;;40.80;;
9940;SDS011;5009;50.656;7.188;2023-02-21T19:29:33;62.80;;;40.63;;
9940;SDS011;5009;50.656;7.188;2023-02-21T19:31:59;59.83;;;39.40;;
9940;SDS011;5009;50.656;7.188;2023-02-21T19:34:24;62.57;;;41.47;;
9940;SDS011;5009;50.656;7.188;2023-02-21T19:36:50;58.33;;;38.77;;
9940;SDS011;5009;50.656;7.188;2023-02-21T19:39:16;58.70;;;39.50;;
9940;SDS011;5009;50.656;7.188;2023-02-21T19:41:42;63.00;;;39.60;;
9940;SDS011;5009;50.656;7.188;2023-02-21T19:44:08;71.27;;;43.10;;
9940;SDS011;5009;50.656;7.188;2023-02-21T19:46:34;65.47;;;43.70;;
9940;SDS011;5009;50.656;7.188;2023-02-21T19:49:00;65.77;;;43.20;;
9940;SDS011;5009;50.656;7.188;2023-02-21T19:51:26;64.27;;;43.67;;
9940;SDS011;5009;50.656;7.188;2023-02-21T19:53:54;73.40;;;46.23;;
9940;SDS011;5009;50.656;7.188;2023-02-21T19:56:22;72.57;;;45.53;;
9940;SDS011;5009;50.656;7.188;2023-02-21T19:58:51;72.00;;;45.07;;
9940;SDS011;5009;50.656;7.188;2023-02-21T20:01:17;74.13;;;46.73;;
9940;SDS011;5009;50.656;7.188;2023-02-21T20:03:45;67.13;;;42.63;;
9940;SDS011;5009;50.656;7.188;2023-02-21T20:06:12;63.90;;;42.27;;
9940;SDS011;5009;50.656;7.188;2023-02-21T20:08:38;64.53;;;42.97;;
9940;SDS011;5009;50.656;7.188;2023-02-21T20:11:04;68.10;;;42.97;;
9940;SDS011;5009;50.656;7.188;2023-02-21T20:13:29;64.77;;;42.90;;
9940;SDS011;5009;50.656;7.188;2023-02-21T20:15:55;69.67;;;44.50;;
9940;SDS011;5009;50.656;7.188;2023-02-21T20:18:21;59.87;;;40.97;;
9940;SDS011;5009;50.656;7.188;2023-02-21T20:20:47;61.63;;;40.10;;
9940;SDS011;5009;50.656;7.188;2023-02-21T20:23:13;62.33;;;42.43;;
9940;SDS011;5009;50.656;7.188;2023-02-21T20:25:39;59.57;;;40.03;;
9940;SDS011;5009;50.656;7.188;2023-02-21T20:28:05;58.63;;;39.30;;
9940;SDS011;5009;50.656;7.188;2023-02-21T20:30:31;58.53;;;39.23;;
9940;SDS011;5009;50.656;7.188;2023-02-21T20:32:56;50.50;;;36.33;;
9940;SDS011;5009;50.656;7.188;2023-02-21T20:35:22;56.57;;;38.43;;
9940;SDS011;5009;50.656;7.188;2023-02-21T20:37:48;61.17;;;40.10;;
9940;SDS011;5009;50.656;7.188;2023-02-21T20:40:14;55.93;;;39.27;;
9940;SDS011;5009;50.656;7.188;2023-02-21T20:42:41;60.23;;;40.23;;
9940;SDS011;5009;50.656;7.188;2023-02-21T20:45:07;55.97;;;38.50;;
9940;SDS011;5009;50.656;7.188;2023-02-21T20:47:36;56.27;;;38.37;;
9940;SDS011;5009;50.656;7.188;2023-02-21T20:50:03;56.73;;;36.00;;
9940;SDS011;5009;50.656;7.188;2023-02-21T20:52:31;58.60;;;38.17;;
9940;SDS011;5009;50.656;7.188;2023-02-21T20:54:58;55.73;;;36.53;;
9940;SDS011;5009;50.656;7.188;2023-02-21T20:57:25;57.30;;;36.80;;
9940;SDS011;5009;50.656;7.188;2023-02-21T20:59:50;56.93;;;38.33;;
9940;SDS011;5009;50.656;7.188;2023-02-21T21:02:16;53.80;;;35.93;;
9940;SDS011;5009;50.656;7.188;2023-02-21T21:04:43;53.57;;;34.83;;
9940;SDS011;5009;50.656;7.188;2023-02-21T21:07:11;54.97;;;36.00;;
9940;SDS011;5009;50.656;7.188;2023-02-21T21:09:46;58.00;;;35.13;;
9940;SDS011;5009;50.656;7.188;2023-02-21T21:12:14;57.37;;;36.93;;
9940;SDS011;5009;50.656;7.188;2023-02-21T21:14:42;58.87;;;37.17;;
9940;SDS011;5009;50.656;7.188;2023-02-21T21:17:09;57.50;;;37.40;;
9940;SDS011;5009;50.656;7.188;2023-02-21T21:19:37;51.77;;;35.67;;
9940;SDS011;5009;50.656;7.188;2023-02-21T21:22:05;58.83;;;36.97;;
9940;SDS011;5009;50.656;7.188;2023-02-21T21:24:33;55.60;;;36.33;;
9940;SDS011;5009;50.656;7.188;2023-02-21T21:26:58;57.10;;;37.67;;
9940;SDS011;5009;50.656;7.188;2023-02-21T21:29:29;58.17;;;37.20;;
9940;SDS011;5009;50.656;7.188;2023-02-21T21:31:56;51.77;;;35.00;;
9940;SDS011;5009;50.656;7.188;2023-02-21T21:34:24;59.37;;;37.77;;
9940;SDS011;5009;50.656;7.188;2023-02-21T21:37:00;58.50;;;38.13;;
9940;SDS011;5009;50.656;7.188;2023-02-21T21:39:27;57.97;;;38.30;;
9940;SDS011;5009;50.656;7.188;2023-02-21T21:41:56;59.07;;;38.93;;
9940;SDS011;5009;50.656;7.188;2023-02-21T21:44:24;89.57;;;54.23;;
9940;SDS011;5009;50.656;7.188;2023-02-21T21:46:51;92.47;;;56.23;;
9940;SDS011;5009;50.656;7.188;2023-02-21T21:49:18;74.77;;;46.43;;
9940;SDS011;5009;50.656;7.188;2023-02-21T21:51:46;66.90;;;41.83;;
9940;SDS011;5009;50.656;7.188;2023-02-21T21:54:15;59.30;;;37.67;;
9940;SDS011;5009;50.656;7.188;2023-02-21T21:56:44;60.27;;;37.50;;
9940;SDS011;5009;50.656;7.188;2023-02-21T21:59:13;51.50;;;33.67;;
